This is the latest recevied weather packets stored in our database for station/object G7GQA-4. If no packets are shown the sender has not sent any weather packets the latest 10 day(s).
| Time | Temp. | Humidity | Pressure | Rain* | Wind** | Luminosity | Snow |
|---|---|---|---|---|---|---|---|
| 1777641324 | 22.78° C | 53% | - | 0 mm | - | 414 W/m² | - |
| 1777640724 | 23.33° C | 52% | - | 0 mm | - | 598 W/m² | - |
| 1777640124 | 23.89° C | 50% | - | 0 mm | - | 810 W/m² | - |
| 1777639524 | 23.33° C | 51% | - | 0 mm | - | 808 W/m² | - |
| 1777638324 | 22.78° C | 53% | - | 0 mm | - | 430 W/m² | - |
| 1777637724 | 22.22° C | 53% | - | 0 mm | - | 441 W/m² | - |
| 1777637124 | 22.22° C | 55% | - | 0 mm | - | 628 W/m² | - |
| 1777636524 | 22.78° C | 52% | - | 0 mm | - | 346 W/m² | - |
| 1777635924 | 23.33° C | 50% | - | 0 mm | - | 703 W/m² | - |
| 1777635324 | 22.78° C | 50% | - | 0 mm | - | 470 W/m² | - |
| 1777634724 | 22.22° C | 52% | - | 0 mm | - | 512 W/m² | - |
| 1777634123 | 22.22° C | 51% | - | 0 mm | - | 570 W/m² | - |
| 1777633524 | 22.78° C | 51% | - | 0 mm | - | 527 W/m² | - |
| 1777632923 | 22.78° C | 49% | - | 0 mm | - | 647 W/m² | - |
| 1777632324 | 21.67° C | 50% | - | 0 mm | - | 541 W/m² | - |
| 1777631723 | 21.67° C | 50% | - | 0 mm | - | 755 W/m² | - |
| 1777631123 | 21.67° C | 51% | - | 0 mm | - | 722 W/m² | - |
| 1777630523 | 21.67° C | 50% | - | 0 mm | - | 569 W/m² | - |
| 1777629923 | 22.22° C | 49% | - | 0 mm | - | 686 W/m² | - |
| 1777629323 | 21.11° C | 50% | - | 0 mm | - | 415 W/m² | - |
| 1777628723 | 21.11° C | 49% | - | 0 mm | - | 645 W/m² | - |
| 1777628123 | 21.11° C | 49% | - | 0 mm | - | 471 W/m² | - |
| 1777627523 | 21.11° C | 48% | - | 0 mm | - | 654 W/m² | - |
| 1777626923 | 20° C | 50% | - | 0 mm | - | 475 W/m² | - |
| 1777626323 | 20° C | 48% | - | 0 mm | - | 540 W/m² | - |
* Rain latest hour (hover to see other rain measurements)
** Current wind speed in m/s (hover to see current wind gust speed)